sensor_id;sensor_type;location;lat;lon;timestamp;P1;durP1;ratioP1;P2;durP2;ratioP2
30036;SDS011;36325;51.512;-0.382;2023-03-18T00:00:30;20.13;;;7.50;;
30036;SDS011;36325;51.512;-0.382;2023-03-18T00:02:59;18.80;;;8.43;;
30036;SDS011;36325;51.512;-0.382;2023-03-18T00:05:27;19.67;;;9.80;;
30036;SDS011;36325;51.512;-0.382;2023-03-18T00:07:56;12.88;;;8.13;;
30036;SDS011;36325;51.512;-0.382;2023-03-18T00:10:23;16.95;;;8.48;;
30036;SDS011;36325;51.512;-0.382;2023-03-18T00:12:52;13.50;;;7.47;;
30036;SDS011;36325;51.512;-0.382;2023-03-18T00:15:19;17.80;;;7.68;;
30036;SDS011;36325;51.512;-0.382;2023-03-18T00:17:47;20.98;;;9.52;;
30036;SDS011;36325;51.512;-0.382;2023-03-18T00:20:15;21.23;;;9.50;;
30036;SDS011;36325;51.512;-0.382;2023-03-18T00:22:44;23.63;;;10.02;;
30036;SDS011;36325;51.512;-0.382;2023-03-18T00:25:13;18.20;;;9.45;;
30036;SDS011;36325;51.512;-0.382;2023-03-18T00:27:41;21.27;;;9.70;;
30036;SDS011;36325;51.512;-0.382;2023-03-18T00:30:09;21.63;;;10.10;;
30036;SDS011;36325;51.512;-0.382;2023-03-18T00:32:38;17.67;;;9.43;;
30036;SDS011;36325;51.512;-0.382;2023-03-18T00:35:07;25.95;;;9.10;;
30036;SDS011;36325;51.512;-0.382;2023-03-18T00:37:34;21.40;;;10.73;;
30036;SDS011;36325;51.512;-0.382;2023-03-18T00:40:06;17.85;;;9.27;;
30036;SDS011;36325;51.512;-0.382;2023-03-18T00:42:42;19.70;;;9.52;;
30036;SDS011;36325;51.512;-0.382;2023-03-18T00:45:14;21.48;;;9.20;;
30036;SDS011;36325;51.512;-0.382;2023-03-18T00:47:42;25.08;;;9.50;;
30036;SDS011;36325;51.512;-0.382;2023-03-18T00:50:10;17.15;;;8.73;;
30036;SDS011;36325;51.512;-0.382;2023-03-18T00:52:38;21.60;;;9.15;;
30036;SDS011;36325;51.512;-0.382;2023-03-18T00:55:06;24.58;;;10.32;;
30036;SDS011;36325;51.512;-0.382;2023-03-18T00:57:33;23.77;;;9.82;;
30036;SDS011;36325;51.512;-0.382;2023-03-18T01:00:03;29.95;;;10.05;;
30036;SDS011;36325;51.512;-0.382;2023-03-18T01:02:32;21.87;;;9.23;;
30036;SDS011;36325;51.512;-0.382;2023-03-18T01:05:00;17.60;;;8.38;;
30036;SDS011;36325;51.512;-0.382;2023-03-18T01:07:29;21.42;;;8.63;;
30036;SDS011;36325;51.512;-0.382;2023-03-18T01:09:56;22.35;;;8.75;;
30036;SDS011;36325;51.512;-0.382;2023-03-18T01:12:23;20.35;;;7.97;;
30036;SDS011;36325;51.512;-0.382;2023-03-18T01:14:51;21.00;;;7.82;;
30036;SDS011;36325;51.512;-0.382;2023-03-18T01:17:18;16.77;;;7.65;;
30036;SDS011;36325;51.512;-0.382;2023-03-18T01:19:46;18.30;;;8.27;;
30036;SDS011;36325;51.512;-0.382;2023-03-18T01:22:14;23.40;;;8.02;;
30036;SDS011;36325;51.512;-0.382;2023-03-18T01:24:46;16.15;;;7.60;;
30036;SDS011;36325;51.512;-0.382;2023-03-18T01:27:15;29.75;;;8.35;;
30036;SDS011;36325;51.512;-0.382;2023-03-18T01:29:45;19.75;;;8.55;;
30036;SDS011;36325;51.512;-0.382;2023-03-18T01:32:19;27.05;;;7.50;;
30036;SDS011;36325;51.512;-0.382;2023-03-18T01:34:47;17.48;;;7.25;;
30036;SDS011;36325;51.512;-0.382;2023-03-18T01:37:15;19.80;;;7.32;;
30036;SDS011;36325;51.512;-0.382;2023-03-18T01:39:45;15.93;;;6.90;;
30036;SDS011;36325;51.512;-0.382;2023-03-18T01:42:19;15.27;;;6.40;;
30036;SDS011;36325;51.512;-0.382;2023-03-18T01:44:47;19.67;;;6.50;;
30036;SDS011;36325;51.512;-0.382;2023-03-18T01:47:15;27.95;;;6.90;;
30036;SDS011;36325;51.512;-0.382;2023-03-18T01:49:50;11.65;;;5.88;;
30036;SDS011;36325;51.512;-0.382;2023-03-18T01:52:23;16.80;;;6.05;;
30036;SDS011;36325;51.512;-0.382;2023-03-18T01:54:55;13.75;;;5.95;;
30036;SDS011;36325;51.512;-0.382;2023-03-18T01:57:29;22.98;;;6.38;;
30036;SDS011;36325;51.512;-0.382;2023-03-18T01:59:58;24.42;;;6.35;;
30036;SDS011;36325;51.512;-0.382;2023-03-18T02:02:28;18.73;;;6.55;;
30036;SDS011;36325;51.512;-0.382;2023-03-18T02:04:57;19.98;;;5.53;;
30036;SDS011;36325;51.512;-0.382;2023-03-18T02:07:30;18.63;;;6.78;;
30036;SDS011;36325;51.512;-0.382;2023-03-18T02:10:02;20.42;;;6.05;;
30036;SDS011;36325;51.512;-0.382;2023-03-18T02:12:33;23.25;;;6.10;;
30036;SDS011;36325;51.512;-0.382;2023-03-18T02:15:08;11.70;;;5.07;;
30036;SDS011;36325;51.512;-0.382;2023-03-18T02:17:48;16.27;;;5.80;;
30036;SDS011;36325;51.512;-0.382;2023-03-18T02:22:57;17.15;;;5.20;;
30036;SDS011;36325;51.512;-0.382;2023-03-18T02:25:58;9.00;;;4.97;;
30036;SDS011;36325;51.512;-0.382;2023-03-18T02:28:43;12.52;;;4.63;;
30036;SDS011;36325;51.512;-0.382;2023-03-18T02:31:13;16.48;;;5.05;;
30036;SDS011;36325;51.512;-0.382;2023-03-18T02:33:44;13.95;;;4.35;;
30036;SDS011;36325;51.512;-0.382;2023-03-18T02:36:21;19.85;;;4.97;;
30036;SDS011;36325;51.512;-0.382;2023-03-18T02:38:51;20.08;;;5.70;;
30036;SDS011;36325;51.512;-0.382;2023-03-18T02:41:24;20.52;;;5.35;;
30036;SDS011;36325;51.512;-0.382;2023-03-18T02:43:58;12.02;;;5.13;;
30036;SDS011;36325;51.512;-0.382;2023-03-18T02:49:02;21.90;;;5.85;;
30036;SDS011;36325;51.512;-0.382;2023-03-18T02:51:36;16.58;;;5.72;;
30036;SDS011;36325;51.512;-0.382;2023-03-18T02:56:33;16.98;;;6.13;;
30036;SDS011;36325;51.512;-0.382;2023-03-18T02:59:01;18.35;;;5.78;;
30036;SDS011;36325;51.512;-0.382;2023-03-18T03:01:33;23.42;;;6.72;;
30036;SDS011;36325;51.512;-0.382;2023-03-18T03:04:01;20.70;;;5.20;;
30036;SDS011;36325;51.512;-0.382;2023-03-18T03:06:29;16.08;;;6.35;;
30036;SDS011;36325;51.512;-0.382;2023-03-18T03:08:57;21.77;;;7.05;;
30036;SDS011;36325;51.512;-0.382;2023-03-18T03:11:26;17.75;;;6.47;;
30036;SDS011;36325;51.512;-0.382;2023-03-18T03:14:00;24.33;;;7.38;;
30036;SDS011;36325;51.512;-0.382;2023-03-18T03:16:30;16.33;;;6.50;;
30036;SDS011;36325;51.512;-0.382;2023-03-18T03:18:58;23.40;;;7.95;;
30036;SDS011;36325;51.512;-0.382;2023-03-18T03:21:25;26.40;;;8.95;;
30036;SDS011;36325;51.512;-0.382;2023-03-18T03:23:53;15.07;;;7.93;;
30036;SDS011;36325;51.512;-0.382;2023-03-18T03:26:20;17.77;;;8.07;;
30036;SDS011;36325;51.512;-0.382;2023-03-18T03:28:48;18.20;;;7.82;;
30036;SDS011;36325;51.512;-0.382;2023-03-18T03:31:15;25.67;;;9.23;;
30036;SDS011;36325;51.512;-0.382;2023-03-18T03:33:43;21.83;;;8.27;;
30036;SDS011;36325;51.512;-0.382;2023-03-18T03:36:12;15.00;;;8.18;;
30036;SDS011;36325;51.512;-0.382;2023-03-18T03:38:41;25.98;;;9.43;;
30036;SDS011;36325;51.512;-0.382;2023-03-18T03:41:09;38.35;;;10.30;;
30036;SDS011;36325;51.512;-0.382;2023-03-18T03:43:39;19.67;;;7.93;;
30036;SDS011;36325;51.512;-0.382;2023-03-18T03:46:07;27.60;;;9.02;;
30036;SDS011;36325;51.512;-0.382;2023-03-18T03:48:36;18.45;;;8.27;;
30036;SDS011;36325;51.512;-0.382;2023-03-18T03:51:09;25.75;;;9.10;;
30036;SDS011;36325;51.512;-0.382;2023-03-18T03:53:37;20.08;;;8.77;;
30036;SDS011;36325;51.512;-0.382;2023-03-18T03:56:05;22.75;;;7.40;;
30036;SDS011;36325;51.512;-0.382;2023-03-18T03:58:35;22.45;;;9.13;;
30036;SDS011;36325;51.512;-0.382;2023-03-18T04:01:02;20.90;;;9.00;;
30036;SDS011;36325;51.512;-0.382;2023-03-18T04:03:32;18.17;;;8.60;;
30036;SDS011;36325;51.512;-0.382;2023-03-18T04:06:03;20.90;;;8.27;;
30036;SDS011;36325;51.512;-0.382;2023-03-18T04:08:34;25.77;;;9.67;;
30036;SDS011;36325;51.512;-0.382;2023-03-18T04:11:01;17.80;;;8.07;;
30036;SDS011;36325;51.512;-0.382;2023-03-18T04:13:30;24.08;;;9.07;;
30036;SDS011;36325;51.512;-0.382;2023-03-18T04:15:58;21.52;;;9.38;;
30036;SDS011;36325;51.512;-0.382;2023-03-18T04:18:25;20.15;;;9.02;;
30036;SDS011;36325;51.512;-0.382;2023-03-18T04:20:52;26.25;;;9.20;;
30036;SDS011;36325;51.512;-0.382;2023-03-18T04:23:50;21.58;;;9.43;;
30036;SDS011;36325;51.512;-0.382;2023-03-18T04:26:19;18.75;;;8.20;;
30036;SDS011;36325;51.512;-0.382;2023-03-18T04:28:47;20.08;;;9.10;;
30036;SDS011;36325;51.512;-0.382;2023-03-18T04:31:15;17.58;;;9.18;;
30036;SDS011;36325;51.512;-0.382;2023-03-18T04:33:43;16.75;;;8.65;;
30036;SDS011;36325;51.512;-0.382;2023-03-18T04:36:11;32.65;;;9.93;;
30036;SDS011;36325;51.512;-0.382;2023-03-18T04:38:39;24.05;;;10.63;;
30036;SDS011;36325;51.512;-0.382;2023-03-18T04:41:06;18.52;;;7.70;;
30036;SDS011;36325;51.512;-0.382;2023-03-18T04:43:34;14.38;;;8.05;;
30036;SDS011;36325;51.512;-0.382;2023-03-18T04:46:03;23.77;;;8.82;;
30036;SDS011;36325;51.512;-0.382;2023-03-18T04:48:32;31.85;;;9.10;;
30036;SDS011;36325;51.512;-0.382;2023-03-18T04:51:02;21.13;;;8.82;;
30036;SDS011;36325;51.512;-0.382;2023-03-18T04:53:32;23.90;;;8.80;;
30036;SDS011;36325;51.512;-0.382;2023-03-18T04:55:59;20.10;;;8.90;;
30036;SDS011;36325;51.512;-0.382;2023-03-18T04:58:36;20.40;;;8.50;;
30036;SDS011;36325;51.512;-0.382;2023-03-18T05:01:08;19.98;;;8.95;;
30036;SDS011;36325;51.512;-0.382;2023-03-18T05:03:37;18.58;;;8.73;;
30036;SDS011;36325;51.512;-0.382;2023-03-18T05:06:05;20.77;;;9.00;;
30036;SDS011;36325;51.512;-0.382;2023-03-18T05:08:49;17.65;;;9.27;;
30036;SDS011;36325;51.512;-0.382;2023-03-18T05:11:18;22.45;;;8.68;;
30036;SDS011;36325;51.512;-0.382;2023-03-18T05:13:46;21.35;;;9.45;;
30036;SDS011;36325;51.512;-0.382;2023-03-18T05:18:47;28.65;;;9.38;;
30036;SDS011;36325;51.512;-0.382;2023-03-18T05:21:15;20.60;;;8.88;;
30036;SDS011;36325;51.512;-0.382;2023-03-18T05:23:42;18.70;;;8.82;;
30036;SDS011;36325;51.512;-0.382;2023-03-18T05:26:10;21.05;;;9.02;;
30036;SDS011;36325;51.512;-0.382;2023-03-18T05:28:41;22.77;;;9.15;;
30036;SDS011;36325;51.512;-0.382;2023-03-18T05:31:17;24.13;;;9.18;;
30036;SDS011;36325;51.512;-0.382;2023-03-18T05:33:45;20.77;;;9.63;;
30036;SDS011;36325;51.512;-0.382;2023-03-18T05:36:13;27.85;;;10.05;;
30036;SDS011;36325;51.512;-0.382;2023-03-18T05:38:59;28.13;;;9.52;;
30036;SDS011;36325;51.512;-0.382;2023-03-18T05:41:27;21.70;;;10.25;;
30036;SDS011;36325;51.512;-0.382;2023-03-18T05:43:55;29.92;;;10.10;;
30036;SDS011;36325;51.512;-0.382;2023-03-18T05:46:25;24.83;;;8.60;;
30036;SDS011;36325;51.512;-0.382;2023-03-18T05:49:09;21.33;;;10.30;;
30036;SDS011;36325;51.512;-0.382;2023-03-18T05:51:47;22.52;;;9.65;;
30036;SDS011;36325;51.512;-0.382;2023-03-18T05:54:26;24.00;;;10.93;;
30036;SDS011;36325;51.512;-0.382;2023-03-18T05:56:54;26.17;;;11.02;;
30036;SDS011;36325;51.512;-0.382;2023-03-18T05:59:21;26.25;;;11.43;;
30036;SDS011;36325;51.512;-0.382;2023-03-18T06:01:56;34.33;;;11.75;;
30036;SDS011;36325;51.512;-0.382;2023-03-18T06:04:24;23.95;;;11.27;;
30036;SDS011;36325;51.512;-0.382;2023-03-18T06:06:52;28.25;;;10.85;;
30036;SDS011;36325;51.512;-0.382;2023-03-18T06:09:21;23.27;;;10.52;;
30036;SDS011;36325;51.512;-0.382;2023-03-18T06:11:49;21.90;;;9.63;;
30036;SDS011;36325;51.512;-0.382;2023-03-18T06:14:17;21.77;;;10.30;;
30036;SDS011;36325;51.512;-0.382;2023-03-18T06:16:44;24.80;;;10.15;;
30036;SDS011;36325;51.512;-0.382;2023-03-18T06:19:12;22.77;;;10.10;;
30036;SDS011;36325;51.512;-0.382;2023-03-18T06:21:40;20.98;;;9.48;;
30036;SDS011;36325;51.512;-0.382;2023-03-18T06:24:07;20.48;;;9.95;;
30036;SDS011;36325;51.512;-0.382;2023-03-18T06:26:37;24.70;;;10.10;;
30036;SDS011;36325;51.512;-0.382;2023-03-18T06:29:05;25.95;;;9.85;;
30036;SDS011;36325;51.512;-0.382;2023-03-18T06:31:32;21.45;;;9.77;;
30036;SDS011;36325;51.512;-0.382;2023-03-18T06:34:02;20.88;;;10.88;;
30036;SDS011;36325;51.512;-0.382;2023-03-18T06:36:33;28.97;;;10.53;;
30036;SDS011;36325;51.512;-0.382;2023-03-18T06:39:04;24.77;;;11.10;;
30036;SDS011;36325;51.512;-0.382;2023-03-18T06:41:34;29.73;;;12.35;;
30036;SDS011;36325;51.512;-0.382;2023-03-18T06:44:22;27.75;;;12.63;;
30036;SDS011;36325;51.512;-0.382;2023-03-18T06:46:53;31.10;;;13.07;;
30036;SDS011;36325;51.512;-0.382;2023-03-18T06:49:21;34.03;;;13.38;;
30036;SDS011;36325;51.512;-0.382;2023-03-18T06:51:56;31.45;;;12.43;;
30036;SDS011;36325;51.512;-0.382;2023-03-18T06:54:23;29.52;;;12.82;;
30036;SDS011;36325;51.512;-0.382;2023-03-18T06:56:52;27.98;;;12.00;;
30036;SDS011;36325;51.512;-0.382;2023-03-18T06:59:21;23.33;;;12.23;;
30036;SDS011;36325;51.512;-0.382;2023-03-18T07:01:49;27.25;;;11.57;;
30036;SDS011;36325;51.512;-0.382;2023-03-18T07:04:19;28.05;;;11.43;;
30036;SDS011;36325;51.512;-0.382;2023-03-18T07:06:47;26.98;;;10.82;;
30036;SDS011;36325;51.512;-0.382;2023-03-18T07:09:15;31.05;;;10.55;;
30036;SDS011;36325;51.512;-0.382;2023-03-18T07:11:49;34.35;;;10.90;;
30036;SDS011;36325;51.512;-0.382;2023-03-18T07:14:20;29.25;;;9.50;;
30036;SDS011;36325;51.512;-0.382;2023-03-18T07:16:48;29.27;;;12.73;;
30036;SDS011;36325;51.512;-0.382;2023-03-18T07:19:19;30.58;;;10.13;;
30036;SDS011;36325;51.512;-0.382;2023-03-18T07:21:49;27.40;;;9.25;;
30036;SDS011;36325;51.512;-0.382;2023-03-18T07:24:16;21.25;;;9.15;;
30036;SDS011;36325;51.512;-0.382;2023-03-18T07:26:46;20.27;;;9.55;;
30036;SDS011;36325;51.512;-0.382;2023-03-18T07:29:15;18.70;;;7.63;;
30036;SDS011;36325;51.512;-0.382;2023-03-18T07:31:43;16.42;;;7.50;;
30036;SDS011;36325;51.512;-0.382;2023-03-18T07:34:11;20.50;;;7.47;;
30036;SDS011;36325;51.512;-0.382;2023-03-18T07:36:40;25.73;;;7.95;;
30036;SDS011;36325;51.512;-0.382;2023-03-18T07:39:09;15.68;;;7.45;;
30036;SDS011;36325;51.512;-0.382;2023-03-18T07:41:36;21.13;;;7.68;;
30036;SDS011;36325;51.512;-0.382;2023-03-18T07:44:04;13.82;;;6.53;;
30036;SDS011;36325;51.512;-0.382;2023-03-18T07:46:33;28.40;;;8.32;;
30036;SDS011;36325;51.512;-0.382;2023-03-18T07:49:00;18.65;;;8.18;;
30036;SDS011;36325;51.512;-0.382;2023-03-18T07:51:27;23.77;;;8.48;;
30036;SDS011;36325;51.512;-0.382;2023-03-18T07:53:55;20.00;;;8.65;;
30036;SDS011;36325;51.512;-0.382;2023-03-18T07:56:23;17.52;;;8.18;;
30036;SDS011;36325;51.512;-0.382;2023-03-18T07:58:51;21.90;;;8.38;;
30036;SDS011;36325;51.512;-0.382;2023-03-18T08:01:19;16.88;;;6.88;;
30036;SDS011;36325;51.512;-0.382;2023-03-18T08:03:46;22.55;;;7.70;;
30036;SDS011;36325;51.512;-0.382;2023-03-18T08:06:14;17.27;;;8.45;;
30036;SDS011;36325;51.512;-0.382;2023-03-18T08:08:44;19.52;;;7.85;;
30036;SDS011;36325;51.512;-0.382;2023-03-18T08:11:12;16.00;;;8.02;;
30036;SDS011;36325;51.512;-0.382;2023-03-18T08:13:40;19.52;;;8.77;;
30036;SDS011;36325;51.512;-0.382;2023-03-18T08:16:09;20.92;;;6.75;;
30036;SDS011;36325;51.512;-0.382;2023-03-18T08:18:39;19.23;;;6.13;;
30036;SDS011;36325;51.512;-0.382;2023-03-18T08:21:08;23.00;;;7.15;;
30036;SDS011;36325;51.512;-0.382;2023-03-18T08:23:36;21.48;;;7.18;;
30036;SDS011;36325;51.512;-0.382;2023-03-18T08:26:04;18.40;;;6.95;;
30036;SDS011;36325;51.512;-0.382;2023-03-18T08:28:31;20.67;;;5.55;;
30036;SDS011;36325;51.512;-0.382;2023-03-18T08:30:59;15.45;;;4.97;;
30036;SDS011;36325;51.512;-0.382;2023-03-18T08:33:28;9.98;;;3.78;;
30036;SDS011;36325;51.512;-0.382;2023-03-18T08:35:55;11.57;;;3.83;;
30036;SDS011;36325;51.512;-0.382;2023-03-18T08:38:23;6.93;;;3.45;;
30036;SDS011;36325;51.512;-0.382;2023-03-18T08:40:51;17.63;;;5.13;;
30036;SDS011;36325;51.512;-0.382;2023-03-18T08:43:18;8.52;;;4.90;;
30036;SDS011;36325;51.512;-0.382;2023-03-18T08:45:51;12.13;;;5.50;;
30036;SDS011;36325;51.512;-0.382;2023-03-18T08:48:19;24.40;;;6.20;;
30036;SDS011;36325;51.512;-0.382;2023-03-18T08:50:47;19.42;;;7.60;;
30036;SDS011;36325;51.512;-0.382;2023-03-18T08:53:15;16.85;;;8.82;;
30036;SDS011;36325;51.512;-0.382;2023-03-18T08:55:45;23.90;;;9.35;;
30036;SDS011;36325;51.512;-0.382;2023-03-18T08:58:13;19.58;;;8.20;;
30036;SDS011;36325;51.512;-0.382;2023-03-18T09:00:40;19.25;;;8.90;;
30036;SDS011;36325;51.512;-0.382;2023-03-18T09:03:08;12.88;;;7.65;;
30036;SDS011;36325;51.512;-0.382;2023-03-18T09:05:36;14.57;;;7.97;;
30036;SDS011;36325;51.512;-0.382;2023-03-18T09:08:04;21.30;;;8.57;;
30036;SDS011;36325;51.512;-0.382;2023-03-18T09:10:32;18.50;;;7.47;;
30036;SDS011;36325;51.512;-0.382;2023-03-18T09:13:01;11.82;;;6.43;;
30036;SDS011;36325;51.512;-0.382;2023-03-18T09:15:28;15.95;;;6.35;;
30036;SDS011;36325;51.512;-0.382;2023-03-18T09:17:57;9.88;;;5.68;;
30036;SDS011;36325;51.512;-0.382;2023-03-18T09:20:38;12.07;;;4.53;;
30036;SDS011;36325;51.512;-0.382;2023-03-18T09:23:07;12.52;;;5.30;;
30036;SDS011;36325;51.512;-0.382;2023-03-18T09:25:35;12.23;;;4.97;;
30036;SDS011;36325;51.512;-0.382;2023-03-18T09:28:03;13.15;;;4.95;;
30036;SDS011;36325;51.512;-0.382;2023-03-18T09:30:31;16.23;;;4.85;;
30036;SDS011;36325;51.512;-0.382;2023-03-18T09:32:59;8.73;;;5.57;;
30036;SDS011;36325;51.512;-0.382;2023-03-18T09:35:27;9.32;;;4.90;;
30036;SDS011;36325;51.512;-0.382;2023-03-18T09:37:55;7.97;;;3.65;;
30036;SDS011;36325;51.512;-0.382;2023-03-18T09:45:56;5.63;;;3.05;;
30036;SDS011;36325;51.512;-0.382;2023-03-18T09:51:29;8.65;;;3.70;;
30036;SDS011;36325;51.512;-0.382;2023-03-18T09:54:03;8.50;;;3.65;;
30036;SDS011;36325;51.512;-0.382;2023-03-18T09:56:55;8.07;;;3.22;;
30036;SDS011;36325;51.512;-0.382;2023-03-18T09:59:23;4.15;;;2.97;;
30036;SDS011;36325;51.512;-0.382;2023-03-18T10:01:55;8.27;;;2.30;;
30036;SDS011;36325;51.512;-0.382;2023-03-18T10:04:40;5.40;;;2.75;;
30036;SDS011;36325;51.512;-0.382;2023-03-18T10:07:14;6.05;;;2.90;;
30036;SDS011;36325;51.512;-0.382;2023-03-18T10:09:46;5.25;;;2.90;;
30036;SDS011;36325;51.512;-0.382;2023-03-18T10:12:23;6.50;;;2.28;;
30036;SDS011;36325;51.512;-0.382;2023-03-18T10:17:37;5.47;;;2.60;;
30036;SDS011;36325;51.512;-0.382;2023-03-18T10:25:37;4.00;;;2.00;;
30036;SDS011;36325;51.512;-0.382;2023-03-18T10:28:31;4.53;;;2.00;;
30036;SDS011;36325;51.512;-0.382;2023-03-18T10:31:34;3.00;;;2.00;;
30036;SDS011;36325;51.512;-0.382;2023-03-18T10:34:15;2.70;;;1.95;;
30036;SDS011;36325;51.512;-0.382;2023-03-18T10:36:49;2.88;;;1.90;;
30036;SDS011;36325;51.512;-0.382;2023-03-18T10:39:22;5.80;;;1.33;;
30036;SDS011;36325;51.512;-0.382;2023-03-18T10:41:52;2.90;;;1.42;;
30036;SDS011;36325;51.512;-0.382;2023-03-18T10:44:25;5.50;;;1.45;;
30036;SDS011;36325;51.512;-0.382;2023-03-18T10:47:12;3.97;;;1.10;;
30036;SDS011;36325;51.512;-0.382;2023-03-18T10:55:42;2.30;;;1.02;;
30036;SDS011;36325;51.512;-0.382;2023-03-18T10:58:33;2.97;;;1.25;;
30036;SDS011;36325;51.512;-0.382;2023-03-18T11:01:02;2.85;;;1.00;;
30036;SDS011;36325;51.512;-0.382;2023-03-18T11:03:40;2.80;;;1.40;;
30036;SDS011;36325;51.512;-0.382;2023-03-18T11:06:21;5.97;;;1.33;;
30036;SDS011;36325;51.512;-0.382;2023-03-18T11:09:05;1.95;;;1.10;;
30036;SDS011;36325;51.512;-0.382;2023-03-18T11:11:38;1.80;;;1.02;;
30036;SDS011;36325;51.512;-0.382;2023-03-18T11:14:12;2.85;;;0.93;;
30036;SDS011;36325;51.512;-0.382;2023-03-18T11:16:49;5.97;;;1.40;;
30036;SDS011;36325;51.512;-0.382;2023-03-18T11:19:29;2.47;;;1.00;;
30036;SDS011;36325;51.512;-0.382;2023-03-18T11:21:59;3.35;;;0.73;;
30036;SDS011;36325;51.512;-0.382;2023-03-18T11:24:36;3.45;;;0.70;;
30036;SDS011;36325;51.512;-0.382;2023-03-18T11:27:21;8.43;;;1.65;;
30036;SDS011;36325;51.512;-0.382;2023-03-18T11:29:58;4.88;;;2.13;;
30036;SDS011;36325;51.512;-0.382;2023-03-18T11:32:29;3.05;;;1.30;;
30036;SDS011;36325;51.512;-0.382;2023-03-18T11:35:00;2.30;;;1.17;;
30036;SDS011;36325;51.512;-0.382;2023-03-18T11:37:33;2.70;;;0.85;;
30036;SDS011;36325;51.512;-0.382;2023-03-18T11:40:14;3.22;;;0.63;;
30036;SDS011;36325;51.512;-0.382;2023-03-18T11:42:45;1.77;;;0.50;;
30036;SDS011;36325;51.512;-0.382;2023-03-18T11:45:21;3.28;;;1.05;;
30036;SDS011;36325;51.512;-0.382;2023-03-18T11:47:57;1.25;;;0.85;;
30036;SDS011;36325;51.512;-0.382;2023-03-18T11:50:26;3.85;;;0.90;;
30036;SDS011;36325;51.512;-0.382;2023-03-18T11:53:09;2.00;;;0.85;;
30036;SDS011;36325;51.512;-0.382;2023-03-18T11:55:55;4.68;;;0.82;;
30036;SDS011;36325;51.512;-0.382;2023-03-18T12:01:48;1.85;;;0.75;;
30036;SDS011;36325;51.512;-0.382;2023-03-18T12:15:47;4.32;;;1.33;;
30036;SDS011;36325;51.512;-0.382;2023-03-18T12:41:17;2.45;;;1.00;;
30036;SDS011;36325;51.512;-0.382;2023-03-18T12:43:55;2.83;;;0.98;;
30036;SDS011;36325;51.512;-0.382;2023-03-18T12:46:33;0.98;;;0.65;;
30036;SDS011;36325;51.512;-0.382;2023-03-18T12:49:13;2.47;;;0.80;;
30036;SDS011;36325;51.512;-0.382;2023-03-18T12:54:17;1.15;;;0.60;;
30036;SDS011;36325;51.512;-0.382;2023-03-18T12:56:58;3.47;;;0.70;;
30036;SDS011;36325;51.512;-0.382;2023-03-18T12:59:31;0.75;;;0.50;;
30036;SDS011;36325;51.512;-0.382;2023-03-18T13:02:23;1.00;;;0.50;;
30036;SDS011;36325;51.512;-0.382;2023-03-18T13:05:02;0.60;;;0.50;;
30036;SDS011;36325;51.512;-0.382;2023-03-18T13:10:17;2.00;;;0.80;;
30036;SDS011;36325;51.512;-0.382;2023-03-18T13:12:58;3.30;;;0.80;;
30036;SDS011;36325;51.512;-0.382;2023-03-18T13:17:59;0.98;;;0.60;;
30036;SDS011;36325;51.512;-0.382;2023-03-18T13:20:37;1.30;;;0.70;;
30036;SDS011;36325;51.512;-0.382;2023-03-18T13:34:52;1.65;;;0.45;;
30036;SDS011;36325;51.512;-0.382;2023-03-18T13:40:27;3.17;;;1.35;;
30036;SDS011;36325;51.512;-0.382;2023-03-18T13:42:59;3.17;;;0.80;;
30036;SDS011;36325;51.512;-0.382;2023-03-18T13:45:29;3.38;;;1.23;;
30036;SDS011;36325;51.512;-0.382;2023-03-18T13:50:32;1.50;;;0.80;;
30036;SDS011;36325;51.512;-0.382;2023-03-18T13:58:27;2.42;;;0.57;;
30036;SDS011;36325;51.512;-0.382;2023-03-18T14:03:27;6.50;;;0.60;;
30036;SDS011;36325;51.512;-0.382;2023-03-18T14:13:43;0.47;;;0.22;;
30036;SDS011;36325;51.512;-0.382;2023-03-18T14:16:15;1.33;;;0.50;;
30036;SDS011;36325;51.512;-0.382;2023-03-18T14:18:55;0.43;;;0.30;;
30036;SDS011;36325;51.512;-0.382;2023-03-18T14:21:28;1.45;;;0.43;;
30036;SDS011;36325;51.512;-0.382;2023-03-18T14:26:46;0.82;;;0.50;;
30036;SDS011;36325;51.512;-0.382;2023-03-18T14:29:40;1.73;;;0.90;;
30036;SDS011;36325;51.512;-0.382;2023-03-18T14:32:34;1.13;;;0.50;;
30036;SDS011;36325;51.512;-0.382;2023-03-18T14:40:48;1.48;;;0.60;;
30036;SDS011;36325;51.512;-0.382;2023-03-18T14:43:26;2.30;;;0.80;;
30036;SDS011;36325;51.512;-0.382;2023-03-18T14:46:13;2.63;;;0.40;;
30036;SDS011;36325;51.512;-0.382;2023-03-18T14:48:43;2.28;;;0.50;;
30036;SDS011;36325;51.512;-0.382;2023-03-18T14:51:13;1.52;;;0.60;;
30036;SDS011;36325;51.512;-0.382;2023-03-18T14:56:34;2.90;;;1.10;;
30036;SDS011;36325;51.512;-0.382;2023-03-18T14:59:04;4.80;;;1.75;;
30036;SDS011;36325;51.512;-0.382;2023-03-18T15:01:35;2.13;;;0.93;;
30036;SDS011;36325;51.512;-0.382;2023-03-18T15:04:04;2.50;;;0.65;;
30036;SDS011;36325;51.512;-0.382;2023-03-18T15:06:38;1.02;;;0.60;;
30036;SDS011;36325;51.512;-0.382;2023-03-18T15:09:16;2.67;;;1.25;;
30036;SDS011;36325;51.512;-0.382;2023-03-18T15:11:58;2.38;;;1.00;;
30036;SDS011;36325;51.512;-0.382;2023-03-18T15:14:41;1.70;;;0.85;;
30036;SDS011;36325;51.512;-0.382;2023-03-18T15:17:13;1.42;;;0.80;;
30036;SDS011;36325;51.512;-0.382;2023-03-18T15:19:42;1.63;;;0.73;;
30036;SDS011;36325;51.512;-0.382;2023-03-18T15:22:11;1.77;;;0.90;;
30036;SDS011;36325;51.512;-0.382;2023-03-18T15:24:46;1.58;;;0.80;;
30036;SDS011;36325;51.512;-0.382;2023-03-18T15:27:15;0.85;;;0.57;;
30036;SDS011;36325;51.512;-0.382;2023-03-18T15:32:24;2.55;;;0.77;;
30036;SDS011;36325;51.512;-0.382;2023-03-18T15:37:32;3.08;;;1.10;;
30036;SDS011;36325;51.512;-0.382;2023-03-18T15:45:38;2.08;;;0.95;;
30036;SDS011;36325;51.512;-0.382;2023-03-18T15:48:11;2.83;;;0.75;;
30036;SDS011;36325;51.512;-0.382;2023-03-18T15:50:53;1.48;;;0.70;;
30036;SDS011;36325;51.512;-0.382;2023-03-18T15:53:26;2.05;;;0.60;;
30036;SDS011;36325;51.512;-0.382;2023-03-18T15:56:06;1.98;;;0.52;;
30036;SDS011;36325;51.512;-0.382;2023-03-18T15:58:39;6.65;;;0.98;;
30036;SDS011;36325;51.512;-0.382;2023-03-18T16:01:12;4.13;;;1.05;;
30036;SDS011;36325;51.512;-0.382;2023-03-18T16:03:43;5.82;;;1.52;;
30036;SDS011;36325;51.512;-0.382;2023-03-18T16:06:15;3.53;;;0.93;;
30036;SDS011;36325;51.512;-0.382;2023-03-18T16:08:43;2.05;;;0.60;;
30036;SDS011;36325;51.512;-0.382;2023-03-18T16:11:11;2.22;;;1.10;;
30036;SDS011;36325;51.512;-0.382;2023-03-18T16:13:40;2.25;;;0.65;;
30036;SDS011;36325;51.512;-0.382;2023-03-18T16:16:13;7.25;;;1.50;;
30036;SDS011;36325;51.512;-0.382;2023-03-18T16:18:50;4.80;;;0.90;;
30036;SDS011;36325;51.512;-0.382;2023-03-18T16:21:18;1.90;;;0.60;;
30036;SDS011;36325;51.512;-0.382;2023-03-18T16:23:46;1.83;;;0.77;;
30036;SDS011;36325;51.512;-0.382;2023-03-18T16:26:14;1.15;;;0.57;;
30036;SDS011;36325;51.512;-0.382;2023-03-18T16:28:43;3.25;;;0.60;;
30036;SDS011;36325;51.512;-0.382;2023-03-18T16:31:13;1.58;;;0.60;;
30036;SDS011;36325;51.512;-0.382;2023-03-18T16:33:40;1.23;;;0.60;;
30036;SDS011;36325;51.512;-0.382;2023-03-18T16:36:09;0.98;;;0.50;;
30036;SDS011;36325;51.512;-0.382;2023-03-18T16:38:46;5.28;;;0.95;;
30036;SDS011;36325;51.512;-0.382;2023-03-18T16:41:14;2.05;;;0.88;;
30036;SDS011;36325;51.512;-0.382;2023-03-18T16:43:41;4.18;;;0.90;;
30036;SDS011;36325;51.512;-0.382;2023-03-18T16:46:10;4.55;;;0.80;;
30036;SDS011;36325;51.512;-0.382;2023-03-18T16:48:40;2.17;;;0.90;;
30036;SDS011;36325;51.512;-0.382;2023-03-18T16:51:07;6.50;;;0.85;;
30036;SDS011;36325;51.512;-0.382;2023-03-18T16:53:34;2.20;;;0.50;;
30036;SDS011;36325;51.512;-0.382;2023-03-18T16:56:14;2.17;;;1.45;;
30036;SDS011;36325;51.512;-0.382;2023-03-18T16:58:44;5.75;;;1.90;;
30036;SDS011;36325;51.512;-0.382;2023-03-18T17:01:15;2.72;;;1.50;;
30036;SDS011;36325;51.512;-0.382;2023-03-18T17:03:42;2.67;;;1.30;;